Time;durP1;ratioP1;P1;durP2;ratioP2;P2;SDS_P1;SDS_P2;PMS_P1;PMS_P2;Temp;Humidity;BMP_temperature;BMP_pressure;BME280_temperature;BME280_humidity;BME280_pressure;Samples;Min_cycle;Max_cycle;Signal;HPM_P1;HPM_P2
2022/08/07 00:03:25;;;;;;;1.10;0.90;;;;;;;8.40;100.00;97536.91;10536632;28;20295;-69
2022/08/07 00:08:25;;;;;;;1.37;1.00;;;;;;;8.34;100.00;97537.41;10535798;28;20194;-69
2022/08/07 00:13:25;;;;;;;1.27;1.00;;;;;;;8.30;100.00;97541.19;10536374;28;20190;-69
2022/08/07 00:18:27;;;;;;;2.90;1.00;;;;;;;8.19;100.00;97527.22;10535309;28;20693;-69
2022/08/07 00:23:29;;;;;;;0.90;0.90;;;;;;;8.19;100.00;97535.06;10535749;28;20197;-69
2022/08/07 00:28:30;;;;;;;0.90;0.90;;;;;;;8.16;100.00;97524.00;10535273;28;20175;-70
2022/08/07 00:33:30;;;;;;;0.90;0.90;;;;;;;8.08;100.00;97522.00;10534093;28;20756;-70
2022/08/07 00:38:32;;;;;;;1.00;0.90;;;;;;;8.04;100.00;97515.41;10535104;28;20270;-70
2022/08/07 00:43:33;;;;;;;0.90;0.90;;;;;;;7.99;100.00;97514.91;10534803;28;20187;-69
2022/08/07 00:48:33;;;;;;;3.17;1.20;;;;;;;7.89;100.00;97511.34;10534605;28;20555;-70
2022/08/07 00:53:34;;;;;;;2.20;1.00;;;;;;;8.01;100.00;97516.47;10534120;28;20255;-70
2022/08/07 00:58:34;;;;;;;1.93;1.17;;;;;;;7.99;100.00;97510.53;10532890;28;20708;-70
2022/08/07 01:03:35;;;;;;;1.00;1.00;;;;;;;7.95;100.00;97510.91;10532831;28;20187;-70
2022/08/07 01:08:36;;;;;;;2.30;0.90;;;;;;;7.92;100.00;97518.97;10533697;28;20174;-70
2022/08/07 01:13:36;;;;;;;3.03;1.20;;;;;;;7.92;100.00;97508.53;10532950;28;20194;-70
2022/08/07 01:18:37;;;;;;;0.90;0.90;;;;;;;7.92;100.00;97500.72;10533456;28;20218;-70
2022/08/07 01:23:42;;;;;;;1.10;1.00;;;;;;;7.84;100.00;97499.50;10532680;28;20201;-70
2022/08/07 01:28:47;;;;;;;1.50;1.10;;;;;;;7.75;100.00;97508.06;10531681;28;20178;-70
2022/08/07 01:33:50;;;;;;;1.80;0.97;;;;;;;7.57;100.00;97510.31;10515204;28;20215;-69
2022/08/07 01:38:50;;;;;;;0.90;0.90;;;;;;;7.60;100.00;97502.25;10531351;28;20214;-70
2022/08/07 01:43:55;;;;;;;1.00;1.00;;;;;;;7.63;100.00;97509.81;10515601;28;20195;-70
2022/08/07 01:48:55;;;;;;;2.77;0.87;;;;;;;7.57;100.00;97510.31;10514645;28;20236;-69
2022/08/07 01:54:02;;;;;;;2.07;1.40;;;;;;;7.66;100.00;97506.16;10514893;28;20579;-70
2022/08/07 01:59:21;;;;;;;1.20;1.10;;;;;;;7.47;100.00;97510.19;10531191;28;20636;-70
2022/08/07 02:04:29;;;;;;;1.40;1.23;;;;;;;7.46;100.00;97502.47;10531630;28;20190;-70
2022/08/07 02:09:33;;;;;;;3.93;1.20;;;;;;;7.43;100.00;97508.75;10513944;28;20210;-70
2022/08/07 02:14:35;;;;;;;1.00;1.00;;;;;;;7.40;100.00;97506.38;10534900;28;20186;-70
2022/08/07 02:19:36;;;;;;;1.73;0.90;;;;;;;7.41;100.00;97510.66;10540495;28;20225;-70
2022/08/07 02:24:40;;;;;;;4.13;1.00;;;;;;;7.39;100.00;97509.09;10538555;28;20186;-70
2022/08/07 02:29:42;;;;;;;2.57;1.20;;;;;;;7.33;100.00;97513.00;10538639;28;20210;-70
2022/08/07 02:34:43;;;;;;;1.10;1.10;;;;;;;7.32;100.00;97509.56;10521797;28;20214;-70
2022/08/07 02:39:45;;;;;;;1.30;1.20;;;;;;;7.27;100.00;97505.66;10521357;28;20324;-70
2022/08/07 02:44:51;;;;;;;1.50;1.20;;;;;;;7.24;100.00;97511.94;10522058;28;20190;-70
2022/08/07 02:49:54;;;;;;;1.83;1.00;;;;;;;7.21;100.00;97513.94;10521427;28;20179;-70
2022/08/07 02:54:58;;;;;;;1.67;1.10;;;;;;;7.19;100.00;97503.63;10520837;28;20585;-70
2022/08/07 02:59:59;;;;;;;1.20;1.10;;;;;;;7.10;100.00;97505.13;10537968;28;20219;-70
2022/08/07 03:05:00;;;;;;;2.03;1.23;;;;;;;7.17;100.00;97507.28;10509443;28;20199;-71
2022/08/07 03:10:01;;;;;;;1.13;1.10;;;;;;;7.19;100.00;97502.78;10487689;28;20262;-70
2022/08/07 03:15:04;;;;;;;1.93;1.20;;;;;;;7.12;100.00;97495.44;10488031;28;20187;-70
2022/08/07 03:20:05;;;;;;;2.37;1.20;;;;;;;7.04;100.00;97497.78;10471115;28;20315;-70
2022/08/07 03:25:06;;;;;;;2.10;1.10;;;;;;;7.05;100.00;97488.19;10487810;28;20207;-71
2022/08/07 03:30:16;;;;;;;1.33;1.23;;;;;;;7.06;100.00;97489.84;10471882;28;20188;-71
2022/08/07 03:35:23;;;;;;;2.67;1.13;;;;;;;7.03;100.00;97480.50;10487336;28;20627;-70
2022/08/07 03:40:24;;;;;;;2.90;1.30;;;;;;;7.01;100.00;97484.97;10486619;28;20360;-70
2022/08/07 03:45:26;;;;;;;1.97;1.30;;;;;;;6.94;100.00;97484.63;10470408;28;20183;-70
2022/08/07 03:50:27;;;;;;;6.10;1.97;;;;;;;7.04;100.00;97483.94;10469316;28;20266;-70
2022/08/07 03:55:29;;;;;;;1.43;1.20;;;;;;;6.99;100.00;97484.28;10469534;28;20269;-70
2022/08/07 04:00:31;;;;;;;1.37;1.13;;;;;;;6.99;100.00;97491.28;10468380;28;20691;-71
2022/08/07 04:05:35;;;;;;;1.43;1.30;;;;;;;7.10;100.00;97488.69;10491612;28;20681;-70
2022/08/07 04:10:36;;;;;;;1.63;1.30;;;;;;;7.14;100.00;97490.94;10475175;28;20504;-70
2022/08/07 04:15:36;;;;;;;2.60;1.20;;;;;;;7.20;100.00;97492.25;10490852;28;20217;-70
2022/08/07 04:20:37;;;;;;;1.77;1.30;;;;;;;7.18;100.00;97488.91;10475427;28;20217;-71
2022/08/07 04:25:39;;;;;;;3.50;1.20;;;;;;;7.16;100.00;97498.63;10475639;28;20190;-71
2022/08/07 04:30:40;;;;;;;4.10;1.33;;;;;;;7.20;100.00;97497.47;10474813;28;20266;-70
2022/08/07 04:35:51;;;;;;;2.80;1.40;;;;;;;7.34;100.00;97491.22;10476688;28;20223;-70
2022/08/07 04:40:56;;;;;;;1.23;1.13;;;;;;;7.46;100.00;97495.47;10475796;28;20302;-70
2022/08/07 04:46:35;;;;;;;3.30;1.20;;;;;;;7.62;100.00;97492.50;10489252;28;20195;-70
2022/08/07 04:51:54;;;;;;;2.23;1.20;;;;;;;7.78;100.00;97496.53;10475025;28;20194;-71
2022/08/07 04:57:19;;;;;;;1.27;1.27;;;;;;;8.03;100.00;97493.66;10490950;28;20227;-70
2022/08/07 05:02:28;;;;;;;1.43;1.10;;;;;;;8.38;100.00;97487.44;10491125;28;20245;-70
2022/08/07 05:07:55;;;;;;;1.37;1.20;;;;;;;8.70;100.00;97486.63;10473094;28;20217;-71
2022/08/07 05:13:03;;;;;;;4.00;1.23;;;;;;;8.88;100.00;97484.28;10491950;28;20531;-70
2022/08/07 05:18:13;;;;;;;2.03;1.10;;;;;;;9.12;100.00;97480.59;10489263;28;20291;-71
2022/08/07 05:23:32;;;;;;;3.03;1.13;;;;;;;9.44;100.00;97484.91;10473948;28;20191;-71
2022/08/07 05:28:35;;;;;;;1.13;1.03;;;;;;;9.70;100.00;97480.06;10473213;28;20219;-70
2022/08/07 05:33:37;;;;;;;1.33;1.20;;;;;;;10.12;100.00;97473.84;10491080;28;20709;-70
2022/08/07 05:38:40;;;;;;;1.90;1.40;;;;;;;10.40;100.00;97469.66;10472433;28;20211;-70
2022/08/07 05:43:41;;;;;;;1.63;1.00;;;;;;;10.83;100.00;97476.25;10472653;28;20282;-70
2022/08/07 05:48:43;;;;;;;1.50;1.40;;;;;;;11.26;96.01;97460.19;10475142;28;20528;-70
2022/08/07 05:53:44;;;;;;;1.97;1.40;;;;;;;11.75;93.43;97461.66;10492920;28;20282;-70
2022/08/07 05:58:46;;;;;;;3.15;1.75;;;;;;;12.05;90.02;97446.63;10507407;28;20240;-70
2022/08/07 06:03:52;;;;;;;2.10;1.30;;;;;;;12.54;86.98;97424.41;10523437;28;20183;-70
2022/08/07 06:08:53;;;;;;;2.75;1.20;;;;;;;13.63;82.13;97396.84;10539640;28;20190;-70
2022/08/07 06:13:54;;;;;;;3.83;1.90;;;;;;;14.89;76.35;97362.41;10522618;28;20186;-71
2022/08/07 06:18:55;;;;;;;3.63;1.70;;;;;;;16.26;71.58;97326.97;10539262;28;20214;-71
2022/08/07 06:23:55;;;;;;;2.38;1.60;;;;;;;18.25;62.26;97221.09;10539120;28;20191;-70
2022/08/07 06:28:58;;;;;;;6.30;1.60;;;;;;;19.80;56.94;97171.16;10521420;28;20193;-70
2022/08/07 06:34:00;;;;;;;3.22;1.40;;;;;;;20.07;55.58;97179.09;10520460;28;20202;-71
2022/08/07 06:39:01;;;;;;;1.48;1.17;;;;;;;19.54;54.01;97139.97;10514503;28;20198;-71
2022/08/07 06:44:04;;;;;;;2.03;1.10;;;;;;;21.09;51.11;97130.75;10514803;28;20543;-71
2022/08/07 06:49:07;;;;;;;1.20;1.00;;;;;;;22.07;47.53;97087.53;10499778;28;20179;-71
2022/08/07 06:54:13;;;;;;;1.50;1.02;;;;;;;22.55;45.88;97070.00;10533053;28;20226;-71
2022/08/07 06:59:18;;;;;;;0.52;0.50;;;;;;;22.13;43.84;97019.16;10519336;28;20218;-71
2022/08/07 07:04:22;;;;;;;2.60;0.70;;;;;;;21.97;42.83;96999.19;10521440;28;20204;-70
2022/08/07 07:09:27;;;;;;;1.45;0.82;;;;;;;22.76;42.39;97025.97;10538393;28;20186;-70
2022/08/07 07:14:31;;;;;;;1.67;0.90;;;;;;;22.89;40.96;96995.56;10521443;28;20556;-70
2022/08/07 07:19:36;;;;;;;1.38;0.70;;;;;;;22.50;41.64;96995.09;10536348;28;20237;-70
2022/08/07 07:24:38;;;;;;;3.63;0.60;;;;;;;23.23;40.68;97005.78;10533869;28;20193;-70
2022/08/07 07:29:42;;;;;;;1.35;0.63;;;;;;;22.00;42.81;97009.41;10537161;28;20261;-70
2022/08/07 07:34:45;;;;;;;1.00;0.60;;;;;;;22.68;41.54;97010.28;10536990;28;20271;-70
2022/08/07 07:39:46;;;;;;;2.08;0.80;;;;;;;22.31;40.01;96948.94;10536854;28;20222;-70
2022/08/07 07:44:47;;;;;;;1.95;0.68;;;;;;;23.49;38.65;96967.09;10536717;28;20271;-70
2022/08/07 07:49:48;;;;;;;0.47;0.47;;;;;;;23.34;38.04;96930.16;10536644;28;20217;-70
2022/08/07 07:54:49;;;;;;;1.13;0.80;;;;;;;23.32;38.30;96941.09;10534723;28;20628;-70
2022/08/07 07:59:50;;;;;;;2.08;0.60;;;;;;;24.43;36.42;96919.81;10535989;28;20222;-70
2022/08/07 08:04:51;;;;;;;2.45;0.50;;;;;;;24.15;38.68;96993.69;10536064;28;20583;-70
2022/08/07 08:09:52;;;;;;;2.47;0.60;;;;;;;24.50;38.30;97007.00;10533699;28;20194;-70
2022/08/07 08:14:52;;;;;;;0.50;0.50;;;;;;;25.12;35.81;96943.78;10535291;28;20722;-70
2022/08/07 08:19:56;;;;;;;1.55;0.52;;;;;;;25.80;34.69;96939.16;10535425;28;20202;-70
2022/08/07 08:30:15;;;;;;;1.10;0.75;;;;;;;24.67;35.84;96932.06;10534270;28;20174;-71
2022/08/07 08:35:19;;;;;;;2.13;0.50;;;;;;;23.93;38.00;96975.59;10533416;28;20218;-71
2022/08/07 08:40:32;;;;;;;2.63;1.20;;;;;;;24.70;35.93;96920.03;10534548;28;20222;-70
2022/08/07 08:46:14;;;;;;;2.38;0.88;;;;;;;25.47;35.28;96950.78;10534512;28;20222;-70
2022/08/07 08:51:18;;;;;;;0.70;0.40;;;;;;;24.98;35.35;96921.00;10523479;28;20239;-71
2022/08/07 08:56:29;;;;;;;2.67;0.45;;;;;;;26.46;33.50;96930.28;10533447;28;20230;-71
2022/08/07 09:01:36;;;;;;;2.50;0.70;;;;;;;25.52;34.02;96897.19;10532593;28;20277;-70
2022/08/07 09:07:05;;;;;;;1.98;0.63;;;;;;;24.85;36.07;96949.75;10530549;28;20225;-71
2022/08/07 09:12:34;;;;;;;1.02;0.80;;;;;;;24.05;37.72;96964.84;10532078;28;20268;-71
2022/08/07 09:18:09;;;;;;;0.85;0.40;;;;;;;25.19;35.44;96952.47;10533340;28;20214;-71
2022/08/07 09:23:30;;;;;;;0.55;0.55;;;;;;;24.19;34.46;96829.69;10531635;28;20657;-70
2022/08/07 09:28:37;;;;;;;2.22;0.70;;;;;;;25.39;34.39;96909.09;10531549;28;20183;-71
2022/08/07 09:33:55;;;;;;;0.68;0.47;;;;;;;26.30;32.97;96902.41;10531808;28;20213;-71
2022/08/07 09:39:21;;;;;;;1.73;0.50;;;;;;;26.12;32.92;96868.66;10531016;28;20245;-71
2022/08/07 09:44:34;;;;;;;1.65;0.50;;;;;;;25.32;35.06;96905.75;10532157;28;20192;-71
2022/08/07 09:49:51;;;;;;;0.57;0.40;;;;;;;26.64;33.11;96891.47;10532265;28;20838;-71
2022/08/07 09:55:03;;;;;;;2.47;0.73;;;;;;;26.31;33.40;96890.63;10532126;28;20294;-71
2022/08/07 10:00:10;;;;;;;3.55;0.80;;;;;;;26.75;32.95;96886.22;10531985;28;20226;-71
2022/08/07 10:05:45;;;;;;;0.75;0.47;;;;;;;26.55;31.96;96827.69;10531095;28;20681;-71
2022/08/07 10:11:15;;;;;;;0.60;0.60;;;;;;;26.34;32.77;96852.50;10528567;28;20202;-71
2022/08/07 10:16:37;;;;;;;1.30;0.80;;;;;;;26.75;31.91;96830.56;10530009;28;20194;-71
2022/08/07 10:22:09;;;;;;;1.10;0.60;;;;;;;26.41;31.42;96778.97;10531546;28;20546;-72
2022/08/07 10:27:25;;;;;;;1.08;0.47;;;;;;;27.24;31.34;96832.22;10531838;28;20221;-71
2022/08/07 10:33:07;;;;;;;7.68;0.80;;;;;;;25.79;32.13;96764.97;10531028;28;20198;-71
2022/08/07 10:38:38;;;;;;;1.88;0.75;;;;;;;27.11;31.03;96797.75;10537853;28;20246;-71
2022/08/07 10:43:54;;;;;;;1.00;0.60;;;;;;;27.21;32.47;96848.88;10538038;28;20191;-71
2022/08/07 10:49:01;;;;;;;1.08;0.50;;;;;;;28.94;29.17;96809.19;10537933;28;20239;-71
2022/08/07 10:54:12;;;;;;;1.13;0.68;;;;;;;26.28;30.61;96695.06;10537317;28;20261;-71
2022/08/07 10:59:25;;;;;;;1.05;0.60;;;;;;;27.16;32.17;96819.28;10537484;28;20301;-71
2022/08/07 11:04:43;;;;;;;0.70;0.60;;;;;;;27.32;31.21;96767.22;10538223;28;20198;-71
2022/08/07 11:09:46;;;;;;;0.80;0.40;;;;;;;29.58;29.38;96816.88;10538488;28;20182;-71
2022/08/07 11:14:54;;;;;;;2.85;0.57;;;;;;;30.09;28.44;96800.41;10537004;28;20186;-71
2022/08/07 11:20:00;;;;;;;1.52;0.50;;;;;;;27.90;29.55;96740.19;10481060;28;20219;-71
2022/08/07 11:25:13;;;;;;;1.25;0.50;;;;;;;27.65;30.40;96753.59;10496094;28;20720;-71
2022/08/07 11:30:16;;;;;;;2.97;0.60;;;;;;;27.42;29.93;96725.28;10494510;28;20187;-71
2022/08/07 11:35:21;;;;;;;2.22;0.60;;;;;;;27.86;30.51;96765.22;10495441;28;20563;-71
2022/08/07 11:40:56;;;;;;;0.55;0.40;;;;;;;28.62;29.24;96740.25;10493518;28;20223;-71
2022/08/07 11:46:21;;;;;;;4.65;0.57;;;;;;;29.47;28.36;96751.31;10493758;28;20219;-71
2022/08/07 11:51:32;;;;;;;1.25;0.57;;;;;;;28.79;29.44;96734.53;10493403;28;20211;-72
2022/08/07 11:56:41;;;;;;;3.65;0.77;;;;;;;28.70;30.69;96795.50;10493075;28;20598;-72
2022/08/07 12:01:49;;;;;;;2.40;0.60;;;;;;;30.12;28.67;96753.09;10492842;28;20278;-72
2022/08/07 12:07:01;;;;;;;1.23;0.70;;;;;;;30.56;27.79;96749.53;10493137;28;20203;-72
2022/08/07 12:12:09;;;;;;;1.75;0.73;;;;;;;30.47;28.18;96743.13;10492475;28;20199;-72
2022/08/07 12:17:10;;;;;;;2.17;0.60;;;;;;;31.11;27.06;96741.16;10492462;28;20650;-72
2022/08/07 12:22:26;;;;;;;0.85;0.47;;;;;;;28.69;29.71;96706.78;10492504;28;20191;-71
2022/08/07 12:27:28;;;;;;;0.52;0.50;;;;;;;28.76;29.45;96696.50;10493089;28;20255;-71
2022/08/07 12:32:38;;;;;;;2.47;0.77;;;;;;;30.44;27.13;96700.44;10491835;28;20811;-71
2022/08/07 12:37:39;;;;;;;1.65;0.90;;;;;;;30.92;27.34;96722.94;10491587;28;20227;-72
2022/08/07 12:42:40;;;;;;;1.27;0.50;;;;;;;29.56;28.62;96676.75;10492910;28;20202;-72
2022/08/07 12:47:48;;;;;;;1.77;0.68;;;;;;;30.03;28.69;96713.19;10490972;28;20674;-72
2022/08/07 12:52:58;;;;;;;0.82;0.40;;;;;;;31.76;26.47;96713.53;10490742;28;20242;-72
2022/08/07 12:57:58;;;;;;;2.75;0.60;;;;;;;31.67;26.30;96680.06;10490030;28;20223;-72
2022/08/07 13:03:17;;;;;;;3.33;0.60;;;;;;;31.25;26.84;96696.03;10490691;28;20186;-72
2022/08/07 13:08:37;;;;;;;1.65;0.70;;;;;;;30.96;27.59;96701.50;10490297;28;20527;-72
2022/08/07 13:14:09;;;;;;;1.60;0.57;;;;;;;29.92;28.53;96675.72;10490494;28;20190;-72
2022/08/07 13:19:22;;;;;;;0.50;0.50;;;;;;;29.55;27.68;96625.75;10490936;28;20341;-72
2022/08/07 13:24:26;;;;;;;0.88;0.70;;;;;;;30.20;28.14;96674.13;10489786;28;20667;-72
2022/08/07 13:30:02;;;;;;;1.83;0.73;;;;;;;30.26;27.67;96664.88;10490159;28;20188;-71
2022/08/07 13:35:24;;;;;;;1.60;0.75;;;;;;;30.22;27.38;96650.34;10463444;28;20234;-71
2022/08/07 13:40:32;;;;;;;3.63;0.50;;;;;;;31.21;26.94;96678.78;10489950;28;20292;-72
2022/08/07 13:45:34;;;;;;;0.50;0.47;;;;;;;32.68;25.13;96677.84;10489555;28;20553;-72
2022/08/07 13:50:37;;;;;;;0.50;0.50;;;;;;;31.00;26.28;96616.00;10490635;28;20190;-71
2022/08/07 13:55:40;;;;;;;3.08;0.70;;;;;;;30.57;26.88;96619.47;10490171;28;20292;-71
2022/08/07 14:00:40;;;;;;;3.17;0.65;;;;;;;31.90;27.45;96712.75;10490209;28;20214;-71
2022/08/07 14:05:42;;;;;;;0.60;0.30;;;;;;;33.40;24.75;96654.69;10489563;28;20561;-72
2022/08/07 14:10:43;;;;;;;0.95;0.70;;;;;;;34.64;23.56;96656.03;10493215;28;20604;-71
2022/08/07 14:15:55;;;;;;;0.38;0.38;;;;;;;34.40;24.12;96658.34;10497702;28;20193;-72
2022/08/07 14:21:09;;;;;;;5.80;0.70;;;;;;;33.06;24.62;96601.66;10497284;28;20240;-72
2022/08/07 14:32:41;;;;;;;0.70;0.52;;;;;;;34.71;23.57;96641.97;10585058;27;20185;-72
2022/08/07 14:37:47;;;;;;;0.65;0.50;;;;;;;33.62;24.68;96617.81;10543461;28;20224;-72
2022/08/07 14:42:59;;;;;;;2.67;0.65;;;;;;;32.48;25.34;96565.13;10557329;28;20272;-72
2022/08/07 14:48:01;;;;;;;5.22;0.63;;;;;;;34.53;23.87;96656.63;10581172;28;20276;-72
2022/08/07 14:53:02;;;;;;;1.30;0.55;;;;;;;35.10;22.44;96594.06;10563549;28;20236;-72
2022/08/07 14:58:03;;;;;;;0.63;0.40;;;;;;;34.10;24.32;96650.59;10544108;28;20213;-73
2022/08/07 15:03:06;;;;;;;4.22;0.70;;;;;;;35.15;22.79;96621.13;10562968;28;20535;-72
2022/08/07 15:08:09;;;;;;;1.52;0.70;;;;;;;35.25;22.01;96578.34;10580602;28;20221;-71
2022/08/07 15:13:16;;;;;;;1.25;0.60;;;;;;;33.88;23.75;96574.53;10579809;28;20645;-72
2022/08/07 15:18:20;;;;;;;3.90;0.80;;;;;;;36.02;21.65;96616.78;10561790;28;20684;-72
2022/08/07 15:23:26;;;;;;;0.82;0.50;;;;;;;36.49;22.07;96652.28;10561459;28;20534;-71
2022/08/07 15:28:28;;;;;;;1.08;0.63;;;;;;;35.71;22.43;96612.31;10579882;28;20220;-72
2022/08/07 15:33:29;;;;;;;0.50;0.40;;;;;;;34.83;22.96;96593.19;10561423;28;20213;-72
2022/08/07 15:38:30;;;;;;;4.30;0.88;;;;;;;36.50;21.59;96626.63;10560991;28;20193;-72
2022/08/07 15:43:57;;;;;;;0.45;0.38;;;;;;;34.76;23.00;96578.44;10561123;27;20185;-69
2022/08/07 15:48:59;;;;;;;2.58;0.40;;;;;;;32.35;24.37;96526.88;10560473;28;20224;-71
2022/08/07 15:53:59;;;;;;;6.38;0.82;;;;;;;34.57;23.43;96603.19;10560052;28;20236;-71
2022/08/07 15:59:03;;;;;;;1.48;0.50;;;;;;;33.83;24.13;96607.25;10560402;28;20208;-71
2022/08/07 16:04:09;;;;;;;2.72;0.45;;;;;;;35.43;21.95;96579.97;10560207;28;20247;-71
2022/08/07 16:09:15;;;;;;;2.20;0.80;;;;;;;34.41;22.21;96532.91;10559610;28;20213;-70
2022/08/07 16:14:32;;;;;;;1.23;0.70;;;;;;;33.20;25.04;96588.06;10576557;28;20216;-71
2022/08/07 16:19:54;;;;;;;3.53;1.42;;;;;;;31.12;26.64;96558.75;10559686;28;20184;-69
2022/08/07 16:24:57;;;;;;;2.75;0.70;;;;;;;31.09;25.73;96522.25;10577478;28;20688;-72
2022/08/07 16:30:05;;;;;;;2.58;0.85;;;;;;;29.42;27.57;96527.31;10558972;28;20218;-71
2022/08/07 16:35:13;;;;;;;1.23;0.60;;;;;;;29.15;27.74;96531.28;10558981;28;20247;-71
2022/08/07 16:40:31;;;;;;;0.57;0.40;;;;;;;27.27;29.23;96516.97;10558160;28;20277;-71
2022/08/07 16:45:37;;;;;;;3.65;0.90;;;;;;;26.57;30.99;96567.63;10558371;28;20558;-70
2022/08/07 16:51:04;;;;;;;3.38;0.85;;;;;;;25.60;32.61;96588.22;10576155;28;20230;-70
2022/08/07 16:56:18;;;;;;;2.40;0.90;;;;;;;24.77;34.09;96596.50;10575458;28;20241;-71
2022/08/07 17:01:33;;;;;;;0.82;0.65;;;;;;;24.99;32.60;96595.66;10575973;28;20228;-71
2022/08/07 17:06:54;;;;;;;2.38;0.80;;;;;;;24.04;35.09;96647.41;10557464;28;20182;-70
2022/08/07 17:12:14;;;;;;;2.17;0.70;;;;;;;24.27;33.83;96624.19;10575639;28;20186;-71
2022/08/07 17:17:47;;;;;;;1.92;0.80;;;;;;;23.94;35.21;96663.34;10557092;28;20254;-70
2022/08/07 17:22:56;;;;;;;1.77;0.75;;;;;;;23.79;35.82;96682.59;10546933;28;20689;-70
2022/08/07 17:28:13;;;;;;;1.00;0.90;;;;;;;23.30;36.08;96693.75;10556770;28;20689;-70
2022/08/07 17:33:16;;;;;;;0.80;0.70;;;;;;;23.15;35.79;96672.88;10575431;28;20671;-70
2022/08/07 17:38:31;;;;;;;1.65;0.88;;;;;;;22.32;37.23;96702.34;10556386;28;20212;-71
2022/08/07 17:43:35;;;;;;;1.10;0.93;;;;;;;22.16;37.92;96711.84;10574677;28;20201;-70
2022/08/07 17:49:06;;;;;;;1.83;0.70;;;;;;;21.84;38.37;96720.13;10555789;28;20651;-70
2022/08/07 17:54:13;;;;;;;2.78;0.85;;;;;;;21.50;39.44;96753.59;10573104;28;20230;-70
2022/08/07 17:59:27;;;;;;;3.30;0.98;;;;;;;21.37;39.71;96759.91;10556165;28;20178;-70
2022/08/07 18:04:44;;;;;;;1.27;0.90;;;;;;;21.30;39.42;96760.00;10556106;28;20600;-71
2022/08/07 18:09:47;;;;;;;2.63;1.30;;;;;;;20.96;41.05;96790.69;10555834;28;20681;-71
2022/08/07 18:14:59;;;;;;;3.97;1.58;;;;;;;20.77;41.14;96787.19;10556591;28;20239;-71
2022/08/07 18:20:09;;;;;;;2.78;1.23;;;;;;;20.62;41.77;96811.47;10566240;28;20193;-70
2022/08/07 18:25:13;;;;;;;3.20;0.98;;;;;;;20.60;40.81;96795.72;10553248;28;20194;-70
2022/08/07 18:30:40;;;;;;;4.03;1.13;;;;;;;20.46;41.23;96804.84;10553049;28;20290;-70
2022/08/07 18:35:53;;;;;;;3.97;1.20;;;;;;;20.07;42.91;96841.31;10542260;28;20710;-71
2022/08/07 18:41:03;;;;;;;3.50;1.40;;;;;;;19.68;44.65;96891.78;10545322;28;20197;-71
2022/08/07 18:46:07;;;;;;;2.42;1.40;;;;;;;18.90;45.93;96903.19;10570610;28;20182;-70
2022/08/07 18:51:39;;;;;;;3.17;1.30;;;;;;;18.83;47.26;96961.53;10557204;28;20209;-70
2022/08/07 18:56:55;;;;;;;3.45;1.45;;;;;;;18.11;49.01;96987.66;10548712;28;20283;-70
2022/08/07 19:02:15;;;;;;;5.35;1.50;;;;;;;17.61;50.54;97022.25;10577388;28;20191;-69
2022/08/07 19:07:46;;;;;;;1.58;1.30;;;;;;;17.06;52.58;97069.66;10558723;28;20265;-70
2022/08/07 19:13:08;;;;;;;2.58;1.52;;;;;;;16.77;53.35;97081.13;10558521;28;20660;-69
2022/08/07 19:18:47;;;;;;;4.05;1.48;;;;;;;16.12;55.19;97098.63;10559109;28;20282;-69
2022/08/07 19:23:49;;;;;;;2.83;2.60;;;;;;;15.79;56.38;97109.50;10479507;28;20202;-69
2022/08/07 19:28:54;;;;;;;3.25;1.80;;;;;;;15.63;57.23;97118.38;10560852;28;20224;-69
2022/08/07 19:33:56;;;;;;;2.15;1.20;;;;;;;15.33;58.24;97137.59;10561334;28;20244;-70
2022/08/07 19:38:57;;;;;;;7.18;1.75;;;;;;;15.26;58.70;97138.47;10577334;28;20586;-70
2022/08/07 19:43:59;;;;;;;2.08;1.60;;;;;;;15.08;59.18;97138.75;10559622;28;20182;-70
2022/08/07 19:49:21;;;;;;;3.13;1.67;;;;;;;14.92;59.85;97135.19;10577383;28;20694;-70
2022/08/07 19:54:22;;;;;;;3.03;1.85;;;;;;;14.85;59.80;97128.97;10558313;28;20655;-70
2022/08/07 19:59:29;;;;;;;2.00;1.48;;;;;;;14.80;60.34;97145.31;10576540;28;20210;-70
2022/08/07 20:04:38;;;;;;;2.88;1.63;;;;;;;14.58;61.15;97146.88;10577189;28;20190;-69
2022/08/07 20:09:47;;;;;;;3.58;1.88;;;;;;;14.36;61.53;97137.06;10557240;28;20188;-70
2022/08/07 20:14:48;;;;;;;2.75;1.70;;;;;;;14.20;62.54;97141.38;10558443;28;20190;-70
2022/08/07 20:19:49;;;;;;;3.08;1.80;;;;;;;13.99;62.99;97152.47;10558178;28;20248;-70
2022/08/07 20:25:03;;;;;;;2.22;1.40;;;;;;;13.93;63.32;97145.22;10576325;28;20281;-70
2022/08/07 20:30:04;;;;;;;3.92;1.55;;;;;;;13.85;63.74;97150.50;10576129;28;20657;-70
2022/08/07 20:35:07;;;;;;;1.90;1.30;;;;;;;13.69;64.38;97162.72;10576127;28;20213;-70
2022/08/07 20:40:11;;;;;;;4.30;1.50;;;;;;;13.55;65.00;97173.88;10557215;28;20222;-70
2022/08/07 20:45:14;;;;;;;3.28;1.42;;;;;;;13.44;65.48;97177.66;10575335;28;20646;-70
2022/08/07 20:50:19;;;;;;;2.08;1.27;;;;;;;13.33;66.17;97191.94;10557536;28;20182;-70
2022/08/07 20:55:21;;;;;;;3.13;1.55;;;;;;;13.24;66.71;97186.81;10574705;28;20652;-70
2022/08/07 21:00:23;;;;;;;6.72;1.80;;;;;;;13.06;67.41;97195.63;10556495;28;20210;-70
2022/08/07 21:05:30;;;;;;;1.67;1.58;;;;;;;13.03;67.61;97195.94;10574551;28;20555;-70
2022/08/07 21:10:34;;;;;;;2.63;1.70;;;;;;;12.97;67.88;97200.06;10574926;28;20189;-70
2022/08/07 21:15:36;;;;;;;2.35;1.50;;;;;;;12.85;68.37;97203.97;10556006;28;20201;-70
2022/08/07 21:20:37;;;;;;;3.05;1.60;;;;;;;12.77;68.95;97202.13;10556119;28;20660;-69
2022/08/07 21:25:45;;;;;;;4.63;1.55;;;;;;;12.75;69.25;97195.38;10574838;28;20277;-70
2022/08/07 21:31:08;;;;;;;4.53;1.70;;;;;;;12.64;69.56;97193.84;10560353;28;20205;-69
2022/08/07 21:36:20;;;;;;;2.47;1.60;;;;;;;12.55;70.17;97211.38;10574706;28;20766;-70
2022/08/07 21:41:48;;;;;;;3.13;1.58;;;;;;;12.52;70.11;97203.81;10556403;28;20252;-70
2022/08/07 21:46:53;;;;;;;2.13;1.63;;;;;;;12.30;71.45;97211.25;10556619;28;20517;-69
2022/08/07 21:52:05;;;;;;;4.87;1.73;;;;;;;12.15;72.33;97228.53;10574782;28;20186;-69
2022/08/07 21:57:36;;;;;;;2.60;1.70;;;;;;;12.05;73.12;97238.31;10573473;28;20229;-71
2022/08/07 22:02:44;;;;;;;1.93;1.60;;;;;;;11.98;73.95;97235.47;10574811;28;20206;-70
2022/08/07 22:07:45;;;;;;;2.33;1.60;;;;;;;11.91;74.26;97231.78;10573910;28;20178;-70
2022/08/07 22:12:51;;;;;;;3.80;1.70;;;;;;;11.87;74.22;97230.44;10574026;28;20193;-69
2022/08/07 22:17:55;;;;;;;2.60;1.70;;;;;;;11.78;74.63;97234.81;10572162;28;20218;-70
2022/08/07 22:23:11;;;;;;;5.00;1.60;;;;;;;11.82;75.08;97225.63;10556369;28;20251;-70
2022/08/07 22:28:16;;;;;;;1.73;1.33;;;;;;;11.62;75.99;97232.03;10572075;28;20552;-70
2022/08/07 22:33:17;;;;;;;3.03;1.60;;;;;;;11.59;76.68;97233.97;10561988;28;20592;-69
2022/08/07 22:38:30;;;;;;;1.80;1.70;;;;;;;11.57;76.78;97233.28;10562348;28;20225;-70
2022/08/07 22:43:35;;;;;;;1.83;1.60;;;;;;;11.42;78.00;97242.66;10563343;28;20198;-69
2022/08/07 22:48:56;;;;;;;4.50;1.50;;;;;;;11.43;78.02;97249.56;10562628;28;20837;-70
2022/08/07 22:54:21;;;;;;;1.87;1.63;;;;;;;11.43;78.20;97242.50;10580259;28;20657;-70
2022/08/07 22:59:38;;;;;;;2.90;1.60;;;;;;;11.27;78.97;97250.22;10562086;28;20279;-70
2022/08/07 23:04:54;;;;;;;1.70;1.30;;;;;;;11.29;78.94;97237.78;10562584;28;20198;-70
2022/08/07 23:10:15;;;;;;;2.90;2.00;;;;;;;11.26;79.88;97237.25;10580274;28;20189;-69
2022/08/07 23:15:22;;;;;;;1.63;1.53;;;;;;;11.16;80.07;97242.53;10561939;28;20667;-70
2022/08/07 23:20:47;;;;;;;2.73;1.87;;;;;;;11.16;80.71;97230.25;10561423;28;20213;-70
2022/08/07 23:26:20;;;;;;;2.73;1.70;;;;;;;11.23;80.82;97230.50;10561360;28;20330;-70
2022/08/07 23:31:59;;;;;;;2.73;1.73;;;;;;;11.21;81.00;97224.59;10578637;28;20209;-70
2022/08/07 23:37:15;;;;;;;2.47;1.70;;;;;;;11.32;79.82;97224.38;10578504;28;20703;-70
2022/08/07 23:42:45;;;;;;;2.57;1.50;;;;;;;11.41;79.45;97225.28;10578625;28;20199;-70
2022/08/07 23:48:08;;;;;;;2.83;1.70;;;;;;;11.40;79.74;97227.06;10578978;28;20625;-70
2022/08/07 23:53:17;;;;;;;2.23;1.50;;;;;;;11.43;80.31;97229.38;10578918;28;20271;-70
2022/08/07 23:58:24;;;;;;;2.30;1.93;;;;;;;11.40;80.40;97229.69;10559686;28;20214;-70
